KBVYKASH

Guest
Details From KBVY - BEVERLY MUNI
To KASH - Boire Field Nashua
Flight Number -
Tags generated
Created
Modified
Stats Distance 29 nm / 54 km
Max Altitude 0 ft / 0 m
Waypoints 3
Social Downloads 1
Likes 0
Share VATSIM

Download

Looking for another format? Having issues loading an existing format? Contact us
Advertisement - Login to hide

Notes

Basic altitude profile: - Ascent Rate: 2500ft/min - Ascent Speed: 250kts - Cruise Altitude: 35000ft - Cruise Speed: 420kts - Descent Rate: 1500ft/min - Descent Speed: 250kts

Route

KBVY WAXEN KASH

ID Type Via Altitude Latitude Longitude Leg Dist Tot Dist Heading (true) Name
O KBVY APT - 0 ft / 0 m 42.58427˚ -70.91652˚ - 0 nm - BEVERLY MUNI
WAXEN FIX - 0 ft / 0 m 42.58456˚ -70.91297˚ 0 nm 0 nm 84° / 84° -
O KASH APT - 0 ft / 0 m 42.78176˚ -71.51477˚ 29 nm 29 nm 294° / 294° Boire Field Nashua

Altitude Profile

Advertisement - Login to hide

KBVY

Details ICAO KBVY (BVY)
Name BEVERLY MUNI
Region United States
Timezone America/New_York (UTC-5.0)
Stats Elevation 107 ft / 33 m (AMSL)
Location 42.584275° -70.916515°
Runways 2
Magnetic Variation 14.767° W

METAR

KBVY 112253Z 00000KT 10SM FEW055 BKN250 M01/M07 A3002 RMK AO2 SLP162 T10111072

Decode

TAF

Not found

Departure Runways

ID Width Length Bearing (true) Bearing (mag) Surface Threshold Offset Overrun Length
09 150 ft / 46 m 4,991 ft / 1,521 m 74.22° 88.99° Asphalt 0 ft / 0 m 0 ft / 0 m
16 100 ft / 30 m 4,634 ft / 1,412 m 140.74° 155.51° Asphalt 239 ft / 73 m 0 ft / 0 m
27 150 ft / 46 m 4,991 ft / 1,521 m 254.24° 269.01° Asphalt 190 ft / 58 m 0 ft / 0 m
34 100 ft / 30 m 4,634 ft / 1,412 m 320.75° 335.52° Asphalt 0 ft / 0 m 0 ft / 0 m

KASH

Details ICAO KASH (ASH)
Name Boire Field Nashua
Region United States
Timezone America/New_York (UTC-5.0)
Stats Elevation 199 ft / 61 m (AMSL)
Location 42.781757° -71.514774°
Runways 1
Magnetic Variation 14.573° W

METAR

KASH 112256Z 30003KT 10SM FEW050 M03/M07 A3002 RMK AO2 SLP178 T10281067

Decode

TAF

Not found

Destination Runways

ID Width Length Bearing (true) Bearing (mag) Surface Threshold Offset Overrun Length
14 98 ft / 30 m 5,493 ft / 1,674 m 122.78° 137.35° Asphalt 0 ft / 0 m 0 ft / 0 m
32 98 ft / 30 m 5,493 ft / 1,674 m 302.80° 317.37° Asphalt 0 ft / 0 m 0 ft / 0 m

Approach Navaids

Runway Type Ident Frequency Range Bearing (true) Bearing (mag) Slope Elevation
14 Localiser IASH 109.70 MHz 18 nm / 33 km 122.80° 137.38° - 186 ft / 57 m (AMSL)
14 Glidescope IASH 109.70 MHz 10 nm / 19 km 122.79° 137.36° 3.00° 194 ft / 59 m (AMSL)